»·PEaware :: N984VW KBFI-KBLI

N984VW :: KBFI-KBLI

FLIGHT INFORMATION

Flight Status: Arrived
Operator: Privately registered:
United States
More flights under this callsign
Pilot: Anonymous 26576 (26576)
Aircraft: CIRRUS SR-22
(SR22)
More flights by this aircraft type
Origin: KBFI Boeing Field/King Co Intl
United States
Destination: KBLI Bellingham Intl
United States
More flights between these airports :: More routes between these airports
Route: NRVNA1 SEA V23 EGRET
File this flight plan on PilotEdge
Remarks:
Altitude:
(Current/Filed)
10,000ft
Speed:
(Current/Filed)
160kts
Departed: 25-Feb-23 01:32 PM
Arrived: 25-Feb-23 02:09 PM
Distance/Time
Traveled:
76nm/0:37
Distance/Time
To Go:
Arrived

Flight Plot

Page will automatically refresh every two minutes.

Flight plan parsing failed; only flown route is shown


Map Options




Map Legend


Flown Route
Filed Route
Departure Airport
Arrival Airport
Navaid (VOR, NDB)
Fix

Horizontal Profiles

Position Reports

Time Latitude Longitude Heading Altitude Ground
Speed
25-Feb-23 13:04 47.533443 -122.301529 239 20ft 0kts
25-Feb-23 13:05 47.533443 -122.301529 239 20ft 0kts
25-Feb-23 13:06 47.533443 -122.301529 239 20ft 0kts
25-Feb-23 13:07 47.533443 -122.301529 239 20ft 0kts
25-Feb-23 13:08 47.533443 -122.301529 239 20ft 0kts
25-Feb-23 13:09 47.533443 -122.301529 239 20ft 0kts
25-Feb-23 13:10 47.533443 -122.301529 239 20ft 0kts
25-Feb-23 13:11 47.533443 -122.301529 239 20ft 0kts
25-Feb-23 13:12 47.533443 -122.301529 239 20ft 0kts
25-Feb-23 13:13 47.533443 -122.301529 239 20ft 0kts
25-Feb-23 13:14 47.533443 -122.301529 239 20ft 0kts
25-Feb-23 13:15 47.533443 -122.301529 239 20ft 0kts
25-Feb-23 13:16 47.533443 -122.301529 239 20ft 0kts
25-Feb-23 13:17 47.533443 -122.301529 239 20ft 0kts
25-Feb-23 13:18 47.533442 -122.301530 239 20ft 0kts
25-Feb-23 13:19 47.533443 -122.301529 239 20ft 0kts
25-Feb-23 13:20 47.533443 -122.301529 239 20ft 0kts
25-Feb-23 13:21 47.533443 -122.301529 239 20ft 0kts
25-Feb-23 13:22 47.533443 -122.301529 239 20ft 0kts
25-Feb-23 13:23 47.533543 -122.302156 291 19ft 9kts
25-Feb-23 13:24 47.535539 -122.304107 326 19ft 8kts
25-Feb-23 13:25 47.537896 -122.306441 328 19ft 15kts
25-Feb-23 13:26 47.540690 -122.308846 321 20ft 6kts
25-Feb-23 13:27 47.541050 -122.309374 296 20ft 0kts
25-Feb-23 13:28 47.541050 -122.309374 296 20ft 0kts
25-Feb-23 13:29 47.541074 -122.309483 271 20ft 2kts
25-Feb-23 13:30 47.540086 -122.310963 146 17ft 14kts
25-Feb-23 13:31 47.518931 -122.291887 145 1045ft 109kts
25-Feb-23 13:32 47.486499 -122.264321 150 1427ft 170kts
25-Feb-23 13:33 47.445328 -122.230408 149 1810ft 167kts
25-Feb-23 13:34 47.405757 -122.197479 150 2502ft 157kts
25-Feb-23 13:35 47.396772 -122.156204 23 3871ft 136kts
25-Feb-23 13:36 47.431929 -122.140920 15 5262ft 128kts
25-Feb-23 13:37 47.465209 -122.127054 15 6640ft 121kts
25-Feb-23 13:38 47.497322 -122.127693 353 8025ft 113kts
25-Feb-23 13:39 47.526811 -122.131967 353 9387ft 100kts
25-Feb-23 13:40 47.560252 -122.137624 350 9792ft 157kts
25-Feb-23 13:41 47.607375 -122.150229 349 9773ft 179kts
25-Feb-23 13:42 47.657113 -122.163659 349 9772ft 183kts
25-Feb-23 13:43 47.706612 -122.182259 342 9772ft 184kts
25-Feb-23 13:44 47.755628 -122.204486 343 9771ft 184kts
25-Feb-23 13:45 47.804780 -122.226133 343 9772ft 184kts
25-Feb-23 13:46 47.853981 -122.247942 343 9771ft 184kts
25-Feb-23 13:47 47.903083 -122.270022 343 9771ft 184kts
25-Feb-23 13:48 47.952819 -122.287162 349 9772ft 184kts
25-Feb-23 13:49 48.003051 -122.301612 349 9772ft 183kts
25-Feb-23 13:50 48.053248 -122.316112 349 9772ft 183kts
25-Feb-23 13:51 48.103350 -122.330636 349 9771ft 183kts
25-Feb-23 13:52 48.153623 -122.345248 349 9772ft 183kts
25-Feb-23 13:53 48.203557 -122.359782 349 9771ft 183kts
25-Feb-23 13:54 48.253608 -122.374396 349 9772ft 183kts
25-Feb-23 13:55 48.303443 -122.389020 349 9772ft 182kts
25-Feb-23 13:56 48.352384 -122.403235 349 9557ft 180kts
25-Feb-23 13:57 48.404122 -122.418404 349 8217ft 181kts
25-Feb-23 13:58 48.453417 -122.432907 350 6063ft 190kts
25-Feb-23 13:59 48.499837 -122.473302 330 3272ft 194kts
25-Feb-23 14:00 48.539051 -122.508649 329 2932ft 146kts
25-Feb-23 14:01 48.574561 -122.535999 355 2910ft 148kts
25-Feb-23 14:02 48.620135 -122.536697 0 2143ft 152kts
25-Feb-23 14:03 48.656411 -122.536893 0 2147ft 116kts
25-Feb-23 14:04 48.689724 -122.537030 0 2123ft 126kts
25-Feb-23 14:05 48.727592 -122.537209 1 1320ft 112kts
25-Feb-23 14:06 48.749221 -122.536336 1 855ft 67kts
25-Feb-23 14:07 48.768962 -122.537463 0 482ft 72kts
25-Feb-23 14:09 48.787182 -122.537392 358 165ft 34kts

Navigation Log

Ident Type
Flight plan parsing failed, navigation log unavailable